Oberon — SKJF — position and weather

sailwx.info

Track history (hours):
 
Tides and Currents Weather Stations Pressure Air Temp Water Temp Dewpoint Dewpoint Depression Visibility Wind Speed Wind Dir Waves Ship Positions

Oberon

Last reported at 2017-Feb-27 22:33 UTC. Time now 2017-Feb-27 22:47 UTC.
Position N 50°41' E 000°41'.

Length 232 m; draft 9.7 m.

Type: Cargo ship. MMSI: 266283000.

Date/timePositionNaut miles runAvg speedWind from/ knotsBaromVisibWave heightAir tempDewpointWater temp
2017-Feb-27 22:33N 50°41' E 000°41'1414.2
2017-Feb-27 21:33N 50°49' E 000°60'1414.3
2017-Feb-27 20:33N 50°58' E 001°17'1717.0
2017-Feb-27 19:33N 51°09' E 001°37'1616.1
2017-Feb-27 18:33N 51°22' E 001°53'1212.0
2017-Feb-27 17:34N 51°22' E 002°12'1414.5
2017-Feb-27 16:33N 51°23' E 002°36'1413.7
2017-Feb-27 15:33N 51°25' E 002°57'1110.9
2017-Feb-27 14:33N 51°20' E 003°13'0 0.0
2017-Feb-27 13:33N 51°20' E 003°13'1 1.1
2017-Feb-27 12:33N 51°19' E 003°14'0 0.0
2017-Feb-27 11:33N 51°19' E 003°14'0 0.0
2017-Feb-27 10:33N 51°19' E 003°14'0 0.0
2017-Feb-27 09:33N 51°19' E 003°14'0 0.0
2017-Feb-27 08:33N 51°19' E 003°14'0 0.0
2017-Feb-27 07:33N 51°19' E 003°14'0 0.0
2017-Feb-27 06:33N 51°19' E 003°14'0 0.0
2017-Feb-27 05:33N 51°19' E 003°14'0 0.0
2017-Feb-27 04:33N 51°19' E 003°14'0 0.0
2017-Feb-27 03:33N 51°19' E 003°14'0 0.0
2017-Feb-27 02:33N 51°19' E 003°14'0 0.0
2017-Feb-27 01:33N 51°19' E 003°14'0 0.0
2017-Feb-27 00:33N 51°19' E 003°14'0 0.0
2017-Feb-26 23:33N 51°19' E 003°14'0 0.0
2017-Feb-26 22:33N 51°19' E 003°14'0 0.0
2017-Feb-26 21:33N 51°19' E 003°14'0 0.0
2017-Feb-26 20:33N 51°19' E 003°14'0 0.0
2017-Feb-26 19:33N 51°19' E 003°14'0 0.0
2017-Feb-26 18:33N 51°19' E 003°14'0 0.0
2017-Feb-26 17:33N 51°19' E 003°14'0 0.0
2017-Feb-26 16:33N 51°19' E 003°14'0 0.0
2017-Feb-26 15:33N 51°19' E 003°14'0 0.0
2017-Feb-26 14:33N 51°19' E 003°14'0 0.0
2017-Feb-26 13:33N 51°19' E 003°14'0 0.0
2017-Feb-26 12:33N 51°19' E 003°14'0 0.0
2017-Feb-26 11:33N 51°19' E 003°14'0 0.0
2017-Feb-26 10:33N 51°19' E 003°14'0 0.0
2017-Feb-26 09:33N 51°19' E 003°14'0 0.0
2017-Feb-26 08:33N 51°19' E 003°14'0 0.0
2017-Feb-26 07:33N 51°19' E 003°14'0 0.0
2017-Feb-26 06:33N 51°19' E 003°14'0 0.0
2017-Feb-26 05:33N 51°19' E 003°14'0 0.0
2017-Feb-26 04:33N 51°19' E 003°14'0 0.0
2017-Feb-26 03:33N 51°19' E 003°14'0 0.0
2017-Feb-26 02:33N 51°19' E 003°14'0 0.0
2017-Feb-26 01:33N 51°19' E 003°14'0 0.0
2017-Feb-26 00:33N 51°19' E 003°14'0 0.0
2017-Feb-25 23:34N 51°19' E 003°14'1 1.1
2017-Feb-25 22:33N 51°20' E 003°13'4 4.4
2017-Feb-25 21:34N 51°23' E 003°09'6 6.4
2017-Feb-25 20:33N 51°23' E 002°58'9 8.9
2017-Feb-25 19:33N 51°21' E 002°44'6 6.4
2017-Feb-25 18:33N 51°28' E 002°45'5 4.7
2017-Feb-25 17:32N 51°31' E 002°39'2 2.4
2017-Feb-25 16:33N 51°33' E 002°42'4 3.6
2017-Feb-25 15:33N 51°36' E 002°43'5 4.5
2017-Feb-25 14:33N 51°41' E 002°43'6 5.9
2017-Feb-25 13:33N 51°47' E 002°42'34 8.3
2017-Feb-25 09:25N 52°17' E 003°07'1010.7
2017-Feb-25 08:32N 52°25' E 003°16'1111.0
2017-Feb-25 07:30N 52°34' E 003°26'1211.4
2017-Feb-25 06:29N 52°43' E 003°38'1110.9
2017-Feb-25 05:31N 52°52' E 003°48'10910.7
2017-Feb-24 19:16N 54°26' E 005°22'811.1
2017-Feb-24 18:33N 54°33' E 005°29'1111.0
2017-Feb-24 17:32N 54°42' E 005°39'24111.5
2017-Feb-23 20:33N 57°50' E 010°11'1211.6
2017-Feb-23 19:32N 57°50' E 010°33'1110.7
2017-Feb-23 18:33N 57°48' E 010°53'1211.7
2017-Feb-23 17:32N 57°42' E 011°12'1111.7
2017-Feb-23 16:33N 57°37' E 011°31'9 8.8
2017-Feb-23 15:33N 57°41' E 011°46'3 3.0
2017-Feb-23 14:33N 57°41' E 011°52'0 0.0
2017-Feb-23 13:33N 57°41' E 011°52'0 0.0
2017-Feb-23 12:33N 57°41' E 011°52'0 0.0
2017-Feb-23 11:33N 57°41' E 011°52'0 0.0
2017-Feb-23 10:33N 57°41' E 011°52'0 0.0
2017-Feb-23 09:33N 57°41' E 011°52'0 0.0
2017-Feb-23 08:33N 57°41' E 011°52'0 0.0
2017-Feb-23 07:33N 57°41' E 011°52'0 0.0
2017-Feb-23 06:33N 57°41' E 011°52'0 0.0
2017-Feb-23 05:33N 57°41' E 011°52'0 0.0
2017-Feb-23 04:33N 57°41' E 011°52'0 0.0
2017-Feb-23 03:33N 57°41' E 011°52'0 0.0
2017-Feb-23 02:33N 57°41' E 011°52'0 0.0
2017-Feb-23 01:33N 57°41' E 011°52'0 0.0
2017-Feb-23 00:33N 57°41' E 011°52'0 0.0
2017-Feb-22 23:33N 57°41' E 011°52'0 0.0
2017-Feb-22 22:33N 57°41' E 011°52'0 0.0
2017-Feb-22 21:33N 57°41' E 011°52'0 0.0
2017-Feb-22 20:33N 57°41' E 011°52'0 0.0
2017-Feb-22 19:33N 57°41' E 011°52'0 0.0
2017-Feb-22 18:33N 57°41' E 011°52'0 0.0
2017-Feb-22 17:33N 57°41' E 011°52'0 0.0
2017-Feb-22 16:33N 57°41' E 011°52'0 0.0
2017-Feb-22 15:33N 57°41' E 011°52'0 0.0
2017-Feb-22 14:33N 57°41' E 011°52'0 0.0
2017-Feb-22 13:33N 57°41' E 011°52'0 0.0
2017-Feb-22 12:33N 57°41' E 011°52'0 0.0
2017-Feb-22 11:33N 57°41' E 011°52'0 0.0
2017-Feb-22 10:33N 57°41' E 011°52'0 0.0
2017-Feb-22 09:33N 57°41' E 011°52'0 0.0
2017-Feb-22 08:33N 57°41' E 011°52'0 0.0
2017-Feb-22 07:33N 57°41' E 011°52'0 0.0
2017-Feb-22 06:33N 57°41' E 011°52'0 0.0
2017-Feb-22 05:33N 57°41' E 011°52'0 0.0
2017-Feb-22 04:33N 57°41' E 011°52'0 0.0
2017-Feb-22 03:33N 57°41' E 011°52'0 0.0
2017-Feb-22 02:33N 57°41' E 011°52'0 0.0
2017-Feb-22 01:34N 57°41' E 011°52'0 0.0
2017-Feb-22 00:33N 57°41' E 011°52'0 0.0
2017-Feb-21 23:33N 57°41' E 011°52'0 0.0
2017-Feb-21 22:33N 57°41' E 011°52'0 0.0
2017-Feb-21 21:33N 57°41' E 011°52'0 0.0
2017-Feb-21 20:33N 57°41' E 011°52'0 0.0
2017-Feb-21 19:33N 57°41' E 011°52'3 3.3
2017-Feb-21 18:33N 57°40' E 011°47'1211.8
2017-Feb-21 17:33N 57°38' E 011°25'1717.4
2017-Feb-21 16:33N 57°47' E 010°56'1717.4
2017-Feb-21 15:34N 57°50' E 010°24'1817.7
2017-Feb-21 14:34N 57°47' E 009°51'15315.3
2017-Feb-21 04:33N 55°47' E 006°58'1515.1
2017-Feb-21 03:33N 55°33' E 006°49'1615.4
2017-Feb-21 02:31N 55°19' E 006°38'1414.8
2017-Feb-21 01:33N 55°06' E 006°47'1515.2
2017-Feb-21 00:33N 54°52' E 006°58'3515.5
2017-Feb-20 22:18N 54°19' E 007°20'1415.9
2017-Feb-20 21:24N 54°07' E 007°33'1416.1
2017-Feb-20 20:33N 53°55' E 007°44'1414.2
2017-Feb-20 19:33N 53°50' E 008°06'1514.6
2017-Feb-20 18:33N 53°39' E 008°24'8 7.4
2017-Feb-20 17:32N 53°34' E 008°33'0 0.5
2017-Feb-20 16:32N 53°35' E 008°33'0 0.0
2017-Feb-20 15:32N 53°35' E 008°33'0 0.0
2017-Feb-20 14:32N 53°35' E 008°33'0 0.0
2017-Feb-20 13:32N 53°35' E 008°33'0 0.0
2017-Feb-20 12:32N 53°35' E 008°33'0 0.0
2017-Feb-20 11:32N 53°35' E 008°33'0 0.0
2017-Feb-20 10:32N 53°35' E 008°33'0 0.0
2017-Feb-20 09:32N 53°35' E 008°33'0 0.0
2017-Feb-20 08:32N 53°35' E 008°33'0 0.0
2017-Feb-20 07:32N 53°35' E 008°33'0 0.0
2017-Feb-20 06:32N 53°35' E 008°33'0 0.0
2017-Feb-20 05:32N 53°35' E 008°33'0 0.0
2017-Feb-20 04:32N 53°35' E 008°33'0 0.0
2017-Feb-20 03:32N 53°35' E 008°33'0 0.0
2017-Feb-20 02:29N 53°35' E 008°33'0 0.0
2017-Feb-20 01:32N 53°35' E 008°33'0 0.0
2017-Feb-20 00:32N 53°35' E 008°33'0 0.0
2017-Feb-19 23:32N 53°35' E 008°33'0 0.0
2017-Feb-19 22:32N 53°35' E 008°33'0 0.0
2017-Feb-19 21:32N 53°35' E 008°33'0 0.0
2017-Feb-19 20:32N 53°35' E 008°33'0 0.0
2017-Feb-19 19:32N 53°35' E 008°33'0 0.2
2017-Feb-19 18:33N 53°34' E 008°33'0 0.5
2017-Feb-19 17:33N 53°34' E 008°33'0 0.0
2017-Feb-19 16:33N 53°34' E 008°33'0 0.0
2017-Feb-19 15:33N 53°34' E 008°33'0 0.0
2017-Feb-19 14:33N 53°34' E 008°33'0 0.0
2017-Feb-19 13:34N 53°34' E 008°33'0 0.0
2017-Feb-19 12:33N 53°34' E 008°33'0 0.0
2017-Feb-19 11:33N 53°34' E 008°33'0 0.0
2017-Feb-19 10:33N 53°34' E 008°33'0 0.0
2017-Feb-19 09:33N 53°34' E 008°33'0 0.0
2017-Feb-19 08:33N 53°34' E 008°33'0 0.0
2017-Feb-19 07:33N 53°34' E 008°33'0 0.0
2017-Feb-19 06:33N 53°34' E 008°33'0 0.0
2017-Feb-19 05:33N 53°34' E 008°33'0 0.0
2017-Feb-19 04:34N 53°34' E 008°33'0 0.0
2017-Feb-19 03:33N 53°34' E 008°33'0 0.0
2017-Feb-19 02:33N 53°34' E 008°33'0 0.0
2017-Feb-19 01:33N 53°34' E 008°33'0 0.0
2017-Feb-19 00:33N 53°34' E 008°33'0 0.0
2017-Feb-18 23:33N 53°34' E 008°33'0 0.0
2017-Feb-18 22:33N 53°34' E 008°33'0 0.0
2017-Feb-18 21:33N 53°34' E 008°33'0 0.0
2017-Feb-18 20:33N 53°34' E 008°33'0 0.0
2017-Feb-18 19:33N 53°34' E 008°33'0 0.0
2017-Feb-18 18:33N 53°34' E 008°33'0 0.0
2017-Feb-18 17:33N 53°34' E 008°33'0 0.0
2017-Feb-18 16:34N 53°34' E 008°33'0 0.0
2017-Feb-18 15:33N 53°34' E 008°33'0 0.0
2017-Feb-18 14:33N 53°34' E 008°33'0 0.0
2017-Feb-18 13:33N 53°34' E 008°33'0 0.0
2017-Feb-18 12:33N 53°34' E 008°33'0 0.0
2017-Feb-18 11:33N 53°34' E 008°33'0 0.0
2017-Feb-18 10:33N 53°34' E 008°33'0 0.0
2017-Feb-18 09:34N 53°34' E 008°33'0 0.0
2017-Feb-18 08:34N 53°34' E 008°33'0 0.0
2017-Feb-18 07:34N 53°34' E 008°33'0 0.0
2017-Feb-18 06:33N 53°34' E 008°33'0 0.0
2017-Feb-18 05:34N 53°34' E 008°33'0 0.0
2017-Feb-18 04:33N 53°34' E 008°33'0 0.0
2017-Feb-18 03:33N 53°34' E 008°33'0 0.0
2017-Feb-18 02:33N 53°34' E 008°33'0 0.0
2017-Feb-18 01:33N 53°34' E 008°33'0 0.0
2017-Feb-18 00:33N 53°34' E 008°33'0 0.0
2017-Feb-17 23:33N 53°34' E 008°33'  
Track history (hours):
 
Tides and Currents Weather Stations Pressure Air Temp Water Temp Dewpoint Dewpoint Depression Visibility Wind Speed Wind Dir Waves Ship Positions

Oberon

Last reported at 2017-Feb-27 22:33 UTC. Time now 2017-Feb-27 22:47 UTC.
Position N 50°41' E 000°41'.

Length 232 m; draft 9.7 m.

Type: Cargo ship. MMSI: 266283000.

Date/timePositionNaut miles runAvg speedWind from/ knotsBaromVisibWave heightAir tempDewpointWater temp
2017-Feb-27 22:33N 50°41' E 000°41'1414.2
2017-Feb-27 21:33N 50°49' E 000°60'1414.3
2017-Feb-27 20:33N 50°58' E 001°17'1717.0
2017-Feb-27 19:33N 51°09' E 001°37'1616.1
2017-Feb-27 18:33N 51°22' E 001°53'1212.0
2017-Feb-27 17:34N 51°22' E 002°12'1414.5
2017-Feb-27 16:33N 51°23' E 002°36'1413.7
2017-Feb-27 15:33N 51°25' E 002°57'1110.9
2017-Feb-27 14:33N 51°20' E 003°13'0 0.0
2017-Feb-27 13:33N 51°20' E 003°13'1 1.1
2017-Feb-27 12:33N 51°19' E 003°14'0 0.0
2017-Feb-27 11:33N 51°19' E 003°14'0 0.0
2017-Feb-27 10:33N 51°19' E 003°14'0 0.0
2017-Feb-27 09:33N 51°19' E 003°14'0 0.0
2017-Feb-27 08:33N 51°19' E 003°14'0 0.0
2017-Feb-27 07:33N 51°19' E 003°14'0 0.0
2017-Feb-27 06:33N 51°19' E 003°14'0 0.0
2017-Feb-27 05:33N 51°19' E 003°14'0 0.0
2017-Feb-27 04:33N 51°19' E 003°14'0 0.0
2017-Feb-27 03:33N 51°19' E 003°14'0 0.0
2017-Feb-27 02:33N 51°19' E 003°14'0 0.0
2017-Feb-27 01:33N 51°19' E 003°14'0 0.0
2017-Feb-27 00:33N 51°19' E 003°14'0 0.0
2017-Feb-26 23:33N 51°19' E 003°14'0 0.0
2017-Feb-26 22:33N 51°19' E 003°14'0 0.0
2017-Feb-26 21:33N 51°19' E 003°14'0 0.0
2017-Feb-26 20:33N 51°19' E 003°14'0 0.0
2017-Feb-26 19:33N 51°19' E 003°14'0 0.0
2017-Feb-26 18:33N 51°19' E 003°14'0 0.0
2017-Feb-26 17:33N 51°19' E 003°14'0 0.0
2017-Feb-26 16:33N 51°19' E 003°14'0 0.0
2017-Feb-26 15:33N 51°19' E 003°14'0 0.0
2017-Feb-26 14:33N 51°19' E 003°14'0 0.0
2017-Feb-26 13:33N 51°19' E 003°14'0 0.0
2017-Feb-26 12:33N 51°19' E 003°14'0 0.0
2017-Feb-26 11:33N 51°19' E 003°14'0 0.0
2017-Feb-26 10:33N 51°19' E 003°14'0 0.0
2017-Feb-26 09:33N 51°19' E 003°14'0 0.0
2017-Feb-26 08:33N 51°19' E 003°14'0 0.0
2017-Feb-26 07:33N 51°19' E 003°14'0 0.0
2017-Feb-26 06:33N 51°19' E 003°14'0 0.0
2017-Feb-26 05:33N 51°19' E 003°14'0 0.0
2017-Feb-26 04:33N 51°19' E 003°14'0 0.0
2017-Feb-26 03:33N 51°19' E 003°14'0 0.0
2017-Feb-26 02:33N 51°19' E 003°14'0 0.0
2017-Feb-26 01:33N 51°19' E 003°14'0 0.0
2017-Feb-26 00:33N 51°19' E 003°14'0 0.0
2017-Feb-25 23:34N 51°19' E 003°14'1 1.1
2017-Feb-25 22:33N 51°20' E 003°13'4 4.4
2017-Feb-25 21:34N 51°23' E 003°09'6 6.4
2017-Feb-25 20:33N 51°23' E 002°58'9 8.9
2017-Feb-25 19:33N 51°21' E 002°44'6 6.4
2017-Feb-25 18:33N 51°28' E 002°45'5 4.7
2017-Feb-25 17:32N 51°31' E 002°39'2 2.4
2017-Feb-25 16:33N 51°33' E 002°42'4 3.6
2017-Feb-25 15:33N 51°36' E 002°43'5 4.5
2017-Feb-25 14:33N 51°41' E 002°43'6 5.9
2017-Feb-25 13:33N 51°47' E 002°42'34 8.3
2017-Feb-25 09:25N 52°17' E 003°07'1010.7
2017-Feb-25 08:32N 52°25' E 003°16'1111.0
2017-Feb-25 07:30N 52°34' E 003°26'1211.4
2017-Feb-25 06:29N 52°43' E 003°38'1110.9
2017-Feb-25 05:31N 52°52' E 003°48'10910.7
2017-Feb-24 19:16N 54°26' E 005°22'811.1
2017-Feb-24 18:33N 54°33' E 005°29'1111.0
2017-Feb-24 17:32N 54°42' E 005°39'24111.5
2017-Feb-23 20:33N 57°50' E 010°11'1211.6
2017-Feb-23 19:32N 57°50' E 010°33'1110.7
2017-Feb-23 18:33N 57°48' E 010°53'1211.7
2017-Feb-23 17:32N 57°42' E 011°12'1111.7
2017-Feb-23 16:33N 57°37' E 011°31'9 8.8
2017-Feb-23 15:33N 57°41' E 011°46'3 3.0
2017-Feb-23 14:33N 57°41' E 011°52'0 0.0
2017-Feb-23 13:33N 57°41' E 011°52'0 0.0
2017-Feb-23 12:33N 57°41' E 011°52'0 0.0
2017-Feb-23 11:33N 57°41' E 011°52'0 0.0
2017-Feb-23 10:33N 57°41' E 011°52'0 0.0
2017-Feb-23 09:33N 57°41' E 011°52'0 0.0
2017-Feb-23 08:33N 57°41' E 011°52'0 0.0
2017-Feb-23 07:33N 57°41' E 011°52'0 0.0
2017-Feb-23 06:33N 57°41' E 011°52'0 0.0
2017-Feb-23 05:33N 57°41' E 011°52'0 0.0
2017-Feb-23 04:33N 57°41' E 011°52'0 0.0
2017-Feb-23 03:33N 57°41' E 011°52'0 0.0
2017-Feb-23 02:33N 57°41' E 011°52'0 0.0
2017-Feb-23 01:33N 57°41' E 011°52'0 0.0
2017-Feb-23 00:33N 57°41' E 011°52'0 0.0
2017-Feb-22 23:33N 57°41' E 011°52'0 0.0
2017-Feb-22 22:33N 57°41' E 011°52'0 0.0
2017-Feb-22 21:33N 57°41' E 011°52'0 0.0
2017-Feb-22 20:33N 57°41' E 011°52'0 0.0
2017-Feb-22 19:33N 57°41' E 011°52'0 0.0
2017-Feb-22 18:33N 57°41' E 011°52'0 0.0
2017-Feb-22 17:33N 57°41' E 011°52'0 0.0
2017-Feb-22 16:33N 57°41' E 011°52'0 0.0
2017-Feb-22 15:33N 57°41' E 011°52'0 0.0
2017-Feb-22 14:33N 57°41' E 011°52'0 0.0
2017-Feb-22 13:33N 57°41' E 011°52'0 0.0
2017-Feb-22 12:33N 57°41' E 011°52'0 0.0
2017-Feb-22 11:33N 57°41' E 011°52'0 0.0
2017-Feb-22 10:33N 57°41' E 011°52'0 0.0
2017-Feb-22 09:33N 57°41' E 011°52'0 0.0
2017-Feb-22 08:33N 57°41' E 011°52'0 0.0
2017-Feb-22 07:33N 57°41' E 011°52'0 0.0
2017-Feb-22 06:33N 57°41' E 011°52'0 0.0
2017-Feb-22 05:33N 57°41' E 011°52'0 0.0
2017-Feb-22 04:33N 57°41' E 011°52'0 0.0
2017-Feb-22 03:33N 57°41' E 011°52'0 0.0
2017-Feb-22 02:33N 57°41' E 011°52'0 0.0
2017-Feb-22 01:34N 57°41' E 011°52'0 0.0
2017-Feb-22 00:33N 57°41' E 011°52'0 0.0
2017-Feb-21 23:33N 57°41' E 011°52'0 0.0
2017-Feb-21 22:33N 57°41' E 011°52'0 0.0
2017-Feb-21 21:33N 57°41' E 011°52'0 0.0
2017-Feb-21 20:33N 57°41' E 011°52'0 0.0
2017-Feb-21 19:33N 57°41' E 011°52'3 3.3
2017-Feb-21 18:33N 57°40' E 011°47'1211.8
2017-Feb-21 17:33N 57°38' E 011°25'1717.4
2017-Feb-21 16:33N 57°47' E 010°56'1717.4
2017-Feb-21 15:34N 57°50' E 010°24'1817.7
2017-Feb-21 14:34N 57°47' E 009°51'15315.3
2017-Feb-21 04:33N 55°47' E 006°58'1515.1
2017-Feb-21 03:33N 55°33' E 006°49'1615.4
2017-Feb-21 02:31N 55°19' E 006°38'1414.8
2017-Feb-21 01:33N 55°06' E 006°47'1515.2
2017-Feb-21 00:33N 54°52' E 006°58'3515.5
2017-Feb-20 22:18N 54°19' E 007°20'1415.9
2017-Feb-20 21:24N 54°07' E 007°33'1416.1
2017-Feb-20 20:33N 53°55' E 007°44'1414.2
2017-Feb-20 19:33N 53°50' E 008°06'1514.6
2017-Feb-20 18:33N 53°39' E 008°24'8 7.4
2017-Feb-20 17:32N 53°34' E 008°33'0 0.5
2017-Feb-20 16:32N 53°35' E 008°33'0 0.0
2017-Feb-20 15:32N 53°35' E 008°33'0 0.0
2017-Feb-20 14:32N 53°35' E 008°33'0 0.0
2017-Feb-20 13:32N 53°35' E 008°33'0 0.0
2017-Feb-20 12:32N 53°35' E 008°33'0 0.0
2017-Feb-20 11:32N 53°35' E 008°33'0 0.0
2017-Feb-20 10:32N 53°35' E 008°33'0 0.0
2017-Feb-20 09:32N 53°35' E 008°33'0 0.0
2017-Feb-20 08:32N 53°35' E 008°33'0 0.0
2017-Feb-20 07:32N 53°35' E 008°33'0 0.0
2017-Feb-20 06:32N 53°35' E 008°33'0 0.0
2017-Feb-20 05:32N 53°35' E 008°33'0 0.0
2017-Feb-20 04:32N 53°35' E 008°33'0 0.0
2017-Feb-20 03:32N 53°35' E 008°33'0 0.0
2017-Feb-20 02:29N 53°35' E 008°33'0 0.0
2017-Feb-20 01:32N 53°35' E 008°33'0 0.0
2017-Feb-20 00:32N 53°35' E 008°33'0 0.0
2017-Feb-19 23:32N 53°35' E 008°33'0 0.0
2017-Feb-19 22:32N 53°35' E 008°33'0 0.0
2017-Feb-19 21:32N 53°35' E 008°33'0 0.0
2017-Feb-19 20:32N 53°35' E 008°33'0 0.0
2017-Feb-19 19:32N 53°35' E 008°33'0 0.2
2017-Feb-19 18:33N 53°34' E 008°33'0 0.5
2017-Feb-19 17:33N 53°34' E 008°33'0 0.0
2017-Feb-19 16:33N 53°34' E 008°33'0 0.0
2017-Feb-19 15:33N 53°34' E 008°33'0 0.0
2017-Feb-19 14:33N 53°34' E 008°33'0 0.0
2017-Feb-19 13:34N 53°34' E 008°33'0 0.0
2017-Feb-19 12:33N 53°34' E 008°33'0 0.0
2017-Feb-19 11:33N 53°34' E 008°33'0 0.0
2017-Feb-19 10:33N 53°34' E 008°33'0 0.0
2017-Feb-19 09:33N 53°34' E 008°33'0 0.0
2017-Feb-19 08:33N 53°34' E 008°33'0 0.0
2017-Feb-19 07:33N 53°34' E 008°33'0 0.0
2017-Feb-19 06:33N 53°34' E 008°33'0 0.0
2017-Feb-19 05:33N 53°34' E 008°33'0 0.0
2017-Feb-19 04:34N 53°34' E 008°33'0 0.0
2017-Feb-19 03:33N 53°34' E 008°33'0 0.0
2017-Feb-19 02:33N 53°34' E 008°33'0 0.0
2017-Feb-19 01:33N 53°34' E 008°33'0 0.0
2017-Feb-19 00:33N 53°34' E 008°33'0 0.0
2017-Feb-18 23:33N 53°34' E 008°33'0 0.0
2017-Feb-18 22:33N 53°34' E 008°33'0 0.0
2017-Feb-18 21:33N 53°34' E 008°33'0 0.0
2017-Feb-18 20:33N 53°34' E 008°33'0 0.0
2017-Feb-18 19:33N 53°34' E 008°33'0 0.0
2017-Feb-18 18:33N 53°34' E 008°33'0 0.0
2017-Feb-18 17:33N 53°34' E 008°33'0 0.0
2017-Feb-18 16:34N 53°34' E 008°33'0 0.0
2017-Feb-18 15:33N 53°34' E 008°33'0 0.0
2017-Feb-18 14:33N 53°34' E 008°33'0 0.0
2017-Feb-18 13:33N 53°34' E 008°33'0 0.0
2017-Feb-18 12:33N 53°34' E 008°33'0 0.0
2017-Feb-18 11:33N 53°34' E 008°33'0 0.0
2017-Feb-18 10:33N 53°34' E 008°33'0 0.0
2017-Feb-18 09:34N 53°34' E 008°33'0 0.0
2017-Feb-18 08:34N 53°34' E 008°33'0 0.0
2017-Feb-18 07:34N 53°34' E 008°33'0 0.0
2017-Feb-18 06:33N 53°34' E 008°33'0 0.0
2017-Feb-18 05:34N 53°34' E 008°33'0 0.0
2017-Feb-18 04:33N 53°34' E 008°33'0 0.0
2017-Feb-18 03:33N 53°34' E 008°33'0 0.0
2017-Feb-18 02:33N 53°34' E 008°33'0 0.0
2017-Feb-18 01:33N 53°34' E 008°33'0 0.0
2017-Feb-18 00:33N 53°34' E 008°33'0 0.0
2017-Feb-17 23:33N 53°34' E 008°33'  

Dump ship's entire track history